sensor_id;sensor_type;location;lat;lon;timestamp;temperature;humidity
47482;DHT22;33219;47.410;9.730;2023-03-23T00:00:48;9.00;99.90
47482;DHT22;33219;47.410;9.730;2023-03-23T00:03:16;9.00;99.90
47482;DHT22;33219;47.410;9.730;2023-03-23T00:05:43;9.10;99.90
47482;DHT22;33219;47.410;9.730;2023-03-23T00:08:13;9.00;99.90
47482;DHT22;33219;47.410;9.730;2023-03-23T00:10:41;8.90;99.90
47482;DHT22;33219;47.410;9.730;2023-03-23T00:13:09;8.80;99.90
47482;DHT22;33219;47.410;9.730;2023-03-23T00:15:37;8.70;99.90
47482;DHT22;33219;47.410;9.730;2023-03-23T00:18:07;8.60;99.90
47482;DHT22;33219;47.410;9.730;2023-03-23T00:20:35;8.60;99.90
47482;DHT22;33219;47.410;9.730;2023-03-23T00:23:04;8.70;99.90
47482;DHT22;33219;47.410;9.730;2023-03-23T00:25:32;8.60;99.90
47482;DHT22;33219;47.410;9.730;2023-03-23T00:27:59;8.60;99.90
47482;DHT22;33219;47.410;9.730;2023-03-23T00:30:27;8.80;99.90
47482;DHT22;33219;47.410;9.730;2023-03-23T00:32:56;8.70;99.90
47482;DHT22;33219;47.410;9.730;2023-03-23T00:35:24;8.70;99.90
47482;DHT22;33219;47.410;9.730;2023-03-23T00:37:53;8.80;99.90
47482;DHT22;33219;47.410;9.730;2023-03-23T00:40:21;8.80;99.90
47482;DHT22;33219;47.410;9.730;2023-03-23T00:42:49;8.70;99.90
47482;DHT22;33219;47.410;9.730;2023-03-23T00:45:17;8.70;99.90
47482;DHT22;33219;47.410;9.730;2023-03-23T00:47:44;8.60;99.90
47482;DHT22;33219;47.410;9.730;2023-03-23T00:50:13;8.60;99.90
47482;DHT22;33219;47.410;9.730;2023-03-23T00:52:41;8.50;99.90
47482;DHT22;33219;47.410;9.730;2023-03-23T00:55:09;8.50;99.90
47482;DHT22;33219;47.410;9.730;2023-03-23T00:57:36;8.40;99.90
47482;DHT22;33219;47.410;9.730;2023-03-23T01:00:05;8.30;99.90
47482;DHT22;33219;47.410;9.730;2023-03-23T01:02:34;8.40;99.90
47482;DHT22;33219;47.410;9.730;2023-03-23T01:05:02;8.50;99.90
47482;DHT22;33219;47.410;9.730;2023-03-23T01:07:30;8.50;99.90
47482;DHT22;33219;47.410;9.730;2023-03-23T01:09:57;8.50;99.90
47482;DHT22;33219;47.410;9.730;2023-03-23T01:12:27;8.50;99.90
47482;DHT22;33219;47.410;9.730;2023-03-23T01:14:54;8.60;99.90
47482;DHT22;33219;47.410;9.730;2023-03-23T01:17:22;8.70;99.90
47482;DHT22;33219;47.410;9.730;2023-03-23T01:19:50;8.70;99.90
47482;DHT22;33219;47.410;9.730;2023-03-23T01:22:17;8.70;99.90
47482;DHT22;33219;47.410;9.730;2023-03-23T01:24:45;8.60;99.90
47482;DHT22;33219;47.410;9.730;2023-03-23T01:27:12;8.60;99.90
47482;DHT22;33219;47.410;9.730;2023-03-23T01:29:40;8.60;99.90
47482;DHT22;33219;47.410;9.730;2023-03-23T01:32:08;8.60;99.90
47482;DHT22;33219;47.410;9.730;2023-03-23T01:34:36;8.60;99.90
47482;DHT22;33219;47.410;9.730;2023-03-23T01:37:03;8.60;99.90
47482;DHT22;33219;47.410;9.730;2023-03-23T01:39:31;8.60;99.90
47482;DHT22;33219;47.410;9.730;2023-03-23T01:41:59;8.50;99.90
47482;DHT22;33219;47.410;9.730;2023-03-23T01:47:03;8.40;99.90
47482;DHT22;33219;47.410;9.730;2023-03-23T01:49:39;8.40;99.90
47482;DHT22;33219;47.410;9.730;2023-03-23T01:52:17;8.30;99.90
47482;DHT22;33219;47.410;9.730;2023-03-23T01:54:45;8.30;99.90
47482;DHT22;33219;47.410;9.730;2023-03-23T01:57:16;8.30;99.90
47482;DHT22;33219;47.410;9.730;2023-03-23T01:59:47;8.30;99.90
47482;DHT22;33219;47.410;9.730;2023-03-23T02:02:15;8.30;99.90
47482;DHT22;33219;47.410;9.730;2023-03-23T02:04:43;8.30;99.90
47482;DHT22;33219;47.410;9.730;2023-03-23T02:07:14;8.20;99.90
47482;DHT22;33219;47.410;9.730;2023-03-23T02:09:42;8.10;99.90
47482;DHT22;33219;47.410;9.730;2023-03-23T02:12:10;8.20;99.90
47482;DHT22;33219;47.410;9.730;2023-03-23T02:14:38;8.30;99.90
47482;DHT22;33219;47.410;9.730;2023-03-23T02:25:31;8.30;99.90
47482;DHT22;33219;47.410;9.730;2023-03-23T02:33:47;8.40;99.90
47482;DHT22;33219;47.410;9.730;2023-03-23T02:36:25;8.50;99.90
47482;DHT22;33219;47.410;9.730;2023-03-23T02:39:04;8.60;99.90
47482;DHT22;33219;47.410;9.730;2023-03-23T02:41:38;8.80;99.90
47482;DHT22;33219;47.410;9.730;2023-03-23T02:44:05;8.90;99.90
47482;DHT22;33219;47.410;9.730;2023-03-23T02:46:36;8.90;99.90
47482;DHT22;33219;47.410;9.730;2023-03-23T02:49:04;9.00;99.90
47482;DHT22;33219;47.410;9.730;2023-03-23T02:51:33;8.90;99.90
47482;DHT22;33219;47.410;9.730;2023-03-23T02:54:03;9.00;99.90
47482;DHT22;33219;47.410;9.730;2023-03-23T02:56:32;9.00;99.90
47482;DHT22;33219;47.410;9.730;2023-03-23T02:59:01;9.00;99.90
47482;DHT22;33219;47.410;9.730;2023-03-23T03:04:01;9.20;99.90
47482;DHT22;33219;47.410;9.730;2023-03-23T03:11:55;9.20;99.90
47482;DHT22;33219;47.410;9.730;2023-03-23T03:14:29;9.20;99.90
47482;DHT22;33219;47.410;9.730;2023-03-23T03:17:05;9.20;99.90
47482;DHT22;33219;47.410;9.730;2023-03-23T03:19:44;9.30;99.90
47482;DHT22;33219;47.410;9.730;2023-03-23T03:22:09;9.40;99.90
47482;DHT22;33219;47.410;9.730;2023-03-23T03:24:37;9.40;99.90
47482;DHT22;33219;47.410;9.730;2023-03-23T03:27:10;9.40;99.90
47482;DHT22;33219;47.410;9.730;2023-03-23T03:29:37;9.50;99.90
47482;DHT22;33219;47.410;9.730;2023-03-23T03:32:11;9.60;99.90
47482;DHT22;33219;47.410;9.730;2023-03-23T03:34:38;9.60;99.90
47482;DHT22;33219;47.410;9.730;2023-03-23T03:37:06;9.70;99.90
47482;DHT22;33219;47.410;9.730;2023-03-23T03:39:36;9.70;99.90
47482;DHT22;33219;47.410;9.730;2023-03-23T03:42:05;9.70;99.90
47482;DHT22;33219;47.410;9.730;2023-03-23T03:44:33;9.80;99.90
47482;DHT22;33219;47.410;9.730;2023-03-23T03:47:01;9.70;99.90
47482;DHT22;33219;47.410;9.730;2023-03-23T03:49:29;9.70;99.90
47482;DHT22;33219;47.410;9.730;2023-03-23T03:51:57;9.70;99.90
47482;DHT22;33219;47.410;9.730;2023-03-23T03:54:24;9.70;99.90
47482;DHT22;33219;47.410;9.730;2023-03-23T03:56:53;9.70;99.90
47482;DHT22;33219;47.410;9.730;2023-03-23T03:59:22;9.80;99.90
47482;DHT22;33219;47.410;9.730;2023-03-23T04:01:50;9.80;99.90
47482;DHT22;33219;47.410;9.730;2023-03-23T04:04:19;9.80;99.90
47482;DHT22;33219;47.410;9.730;2023-03-23T04:06:48;9.80;99.90
47482;DHT22;33219;47.410;9.730;2023-03-23T04:09:16;9.80;99.90
47482;DHT22;33219;47.410;9.730;2023-03-23T04:11:45;9.80;99.90
47482;DHT22;33219;47.410;9.730;2023-03-23T04:14:13;9.80;99.90
47482;DHT22;33219;47.410;9.730;2023-03-23T04:16:46;9.80;99.90
47482;DHT22;33219;47.410;9.730;2023-03-23T04:19:10;9.70;99.90
47482;DHT22;33219;47.410;9.730;2023-03-23T04:21:38;9.70;99.90
47482;DHT22;33219;47.410;9.730;2023-03-23T04:24:07;9.80;99.90
47482;DHT22;33219;47.410;9.730;2023-03-23T04:26:34;9.80;99.90
47482;DHT22;33219;47.410;9.730;2023-03-23T04:29:02;9.80;99.90
47482;DHT22;33219;47.410;9.730;2023-03-23T04:31:30;9.90;99.90
47482;DHT22;33219;47.410;9.730;2023-03-23T04:33:58;9.90;99.90
47482;DHT22;33219;47.410;9.730;2023-03-23T04:36:28;9.90;99.90
47482;DHT22;33219;47.410;9.730;2023-03-23T04:38:56;9.90;99.90
47482;DHT22;33219;47.410;9.730;2023-03-23T04:41:23;9.90;99.90
47482;DHT22;33219;47.410;9.730;2023-03-23T04:43:51;9.90;99.90
47482;DHT22;33219;47.410;9.730;2023-03-23T04:46:20;9.90;99.90
47482;DHT22;33219;47.410;9.730;2023-03-23T04:48:48;9.90;99.90
47482;DHT22;33219;47.410;9.730;2023-03-23T04:51:16;9.90;99.90
47482;DHT22;33219;47.410;9.730;2023-03-23T04:53:43;9.90;99.90
47482;DHT22;33219;47.410;9.730;2023-03-23T04:56:11;10.00;99.90
47482;DHT22;33219;47.410;9.730;2023-03-23T04:58:40;10.00;99.90
47482;DHT22;33219;47.410;9.730;2023-03-23T05:01:08;10.00;99.90
47482;DHT22;33219;47.410;9.730;2023-03-23T05:03:35;9.90;99.90
47482;DHT22;33219;47.410;9.730;2023-03-23T05:06:03;9.90;99.90
47482;DHT22;33219;47.410;9.730;2023-03-23T05:08:31;9.90;99.90
47482;DHT22;33219;47.410;9.730;2023-03-23T05:11:00;9.90;99.90
47482;DHT22;33219;47.410;9.730;2023-03-23T05:13:28;9.90;99.90
47482;DHT22;33219;47.410;9.730;2023-03-23T05:15:56;9.80;99.90
47482;DHT22;33219;47.410;9.730;2023-03-23T05:18:24;9.80;99.90
47482;DHT22;33219;47.410;9.730;2023-03-23T05:20:52;9.80;99.90
47482;DHT22;33219;47.410;9.730;2023-03-23T05:23:20;9.80;99.90
47482;DHT22;33219;47.410;9.730;2023-03-23T05:25:57;9.80;99.90
47482;DHT22;33219;47.410;9.730;2023-03-23T05:28:27;9.80;99.90
47482;DHT22;33219;47.410;9.730;2023-03-23T05:30:55;9.80;99.90
47482;DHT22;33219;47.410;9.730;2023-03-23T05:33:22;9.80;99.90
47482;DHT22;33219;47.410;9.730;2023-03-23T05:35:50;9.80;99.90
47482;DHT22;33219;47.410;9.730;2023-03-23T05:38:17;9.80;99.90
47482;DHT22;33219;47.410;9.730;2023-03-23T05:40:46;9.80;99.90
47482;DHT22;33219;47.410;9.730;2023-03-23T05:43:13;9.80;99.90
47482;DHT22;33219;47.410;9.730;2023-03-23T05:45:41;9.90;99.90
47482;DHT22;33219;47.410;9.730;2023-03-23T05:48:09;9.90;99.90
47482;DHT22;33219;47.410;9.730;2023-03-23T05:50:36;9.80;99.90
47482;DHT22;33219;47.410;9.730;2023-03-23T05:53:04;9.90;99.90
47482;DHT22;33219;47.410;9.730;2023-03-23T05:55:31;10.00;99.90
47482;DHT22;33219;47.410;9.730;2023-03-23T05:57:59;10.00;99.90
47482;DHT22;33219;47.410;9.730;2023-03-23T06:00:27;10.10;99.90
47482;DHT22;33219;47.410;9.730;2023-03-23T06:02:57;10.10;99.90
47482;DHT22;33219;47.410;9.730;2023-03-23T06:05:24;10.10;99.90
47482;DHT22;33219;47.410;9.730;2023-03-23T06:07:52;10.20;99.90
47482;DHT22;33219;47.410;9.730;2023-03-23T06:10:20;10.20;99.90
47482;DHT22;33219;47.410;9.730;2023-03-23T06:12:49;10.40;99.90
47482;DHT22;33219;47.410;9.730;2023-03-23T06:15:17;10.40;99.90
47482;DHT22;33219;47.410;9.730;2023-03-23T06:17:45;10.50;99.90
47482;DHT22;33219;47.410;9.730;2023-03-23T06:20:13;10.60;99.90
47482;DHT22;33219;47.410;9.730;2023-03-23T06:22:45;10.80;99.90
47482;DHT22;33219;47.410;9.730;2023-03-23T06:25:14;10.90;99.90
47482;DHT22;33219;47.410;9.730;2023-03-23T06:27:44;11.10;99.90
47482;DHT22;33219;47.410;9.730;2023-03-23T06:30:13;11.20;99.90
47482;DHT22;33219;47.410;9.730;2023-03-23T06:32:43;11.30;99.90
47482;DHT22;33219;47.410;9.730;2023-03-23T06:35:13;11.40;99.90
47482;DHT22;33219;47.410;9.730;2023-03-23T06:37:42;11.50;99.90
47482;DHT22;33219;47.410;9.730;2023-03-23T06:40:12;11.60;99.90
47482;DHT22;33219;47.410;9.730;2023-03-23T06:45:46;11.80;99.90
47482;DHT22;33219;47.410;9.730;2023-03-23T06:48:41;11.90;99.90
47482;DHT22;33219;47.410;9.730;2023-03-23T06:57:04;12.10;99.90
47482;DHT22;33219;47.410;9.730;2023-03-23T06:59:42;12.20;99.90
47482;DHT22;33219;47.410;9.730;2023-03-23T07:02:15;12.20;99.90
47482;DHT22;33219;47.410;9.730;2023-03-23T07:04:51;12.20;99.90
47482;DHT22;33219;47.410;9.730;2023-03-23T07:07:24;12.20;99.90
47482;DHT22;33219;47.410;9.730;2023-03-23T07:10:02;12.20;99.90
47482;DHT22;33219;47.410;9.730;2023-03-23T07:12:38;12.20;99.90
47482;DHT22;33219;47.410;9.730;2023-03-23T07:15:14;12.20;99.90
47482;DHT22;33219;47.410;9.730;2023-03-23T07:17:50;12.20;99.90
47482;DHT22;33219;47.410;9.730;2023-03-23T07:20:24;12.20;99.90
47482;DHT22;33219;47.410;9.730;2023-03-23T07:22:58;12.20;99.90
47482;DHT22;33219;47.410;9.730;2023-03-23T07:25:32;12.20;99.90
47482;DHT22;33219;47.410;9.730;2023-03-23T07:28:07;12.10;99.90
47482;DHT22;33219;47.410;9.730;2023-03-23T07:30:40;12.20;99.90
47482;DHT22;33219;47.410;9.730;2023-03-23T07:33:15;12.10;99.90
47482;DHT22;33219;47.410;9.730;2023-03-23T07:35:50;12.30;99.90
47482;DHT22;33219;47.410;9.730;2023-03-23T07:38:29;12.40;99.90
47482;DHT22;33219;47.410;9.730;2023-03-23T07:41:13;12.60;99.40
47482;DHT22;33219;47.410;9.730;2023-03-23T07:49:59;13.20;97.90
47482;DHT22;33219;47.410;9.730;2023-03-23T07:59:00;13.70;97.20
47482;DHT22;33219;47.410;9.730;2023-03-23T08:13:30;14.30;95.80
47482;DHT22;33219;47.410;9.730;2023-03-23T08:41:29;15.10;94.10
47482;DHT22;33219;47.410;9.730;2023-03-23T08:47:37;16.10;92.50
47482;DHT22;33219;47.410;9.730;2023-03-23T08:55:24;17.10;86.70
47482;DHT22;33219;47.410;9.730;2023-03-23T08:57:57;17.30;86.40
47482;DHT22;33219;47.410;9.730;2023-03-23T09:03:32;17.50;83.00
47482;DHT22;33219;47.410;9.730;2023-03-23T09:06:10;17.90;81.70
47482;DHT22;33219;47.410;9.730;2023-03-23T09:08:42;18.40;79.20
47482;DHT22;33219;47.410;9.730;2023-03-23T09:11:20;18.60;78.70
47482;DHT22;33219;47.410;9.730;2023-03-23T09:17:27;18.50;77.30
47482;DHT22;33219;47.410;9.730;2023-03-23T09:20:17;18.40;78.00
47482;DHT22;33219;47.410;9.730;2023-03-23T09:22:51;18.30;77.80
47482;DHT22;33219;47.410;9.730;2023-03-23T09:25:27;18.30;78.20
47482;DHT22;33219;47.410;9.730;2023-03-23T09:28:04;18.00;78.70
47482;DHT22;33219;47.410;9.730;2023-03-23T09:30:45;18.10;77.80
47482;DHT22;33219;47.410;9.730;2023-03-23T09:33:27;18.00;77.80
47482;DHT22;33219;47.410;9.730;2023-03-23T09:36:13;17.70;78.30
47482;DHT22;33219;47.410;9.730;2023-03-23T09:38:52;17.60;78.60
47482;DHT22;33219;47.410;9.730;2023-03-23T09:44:31;17.50;79.60
47482;DHT22;33219;47.410;9.730;2023-03-23T09:52:18;17.40;80.00
47482;DHT22;33219;47.410;9.730;2023-03-23T09:54:53;17.40;80.30
47482;DHT22;33219;47.410;9.730;2023-03-23T09:57:51;17.50;80.70
47482;DHT22;33219;47.410;9.730;2023-03-23T10:00:30;17.70;79.90
47482;DHT22;33219;47.410;9.730;2023-03-23T10:03:11;17.90;79.40
47482;DHT22;33219;47.410;9.730;2023-03-23T10:05:51;18.00;79.80
47482;DHT22;33219;47.410;9.730;2023-03-23T10:08:30;18.00;78.50
47482;DHT22;33219;47.410;9.730;2023-03-23T10:11:09;18.20;77.50
47482;DHT22;33219;47.410;9.730;2023-03-23T10:16:51;18.80;74.30
47482;DHT22;33219;47.410;9.730;2023-03-23T10:19:41;19.10;73.20
47482;DHT22;33219;47.410;9.730;2023-03-23T10:22:14;19.30;72.90
47482;DHT22;33219;47.410;9.730;2023-03-23T10:24:50;19.30;72.70
47482;DHT22;33219;47.410;9.730;2023-03-23T10:27:26;19.30;72.70
47482;DHT22;33219;47.410;9.730;2023-03-23T10:47:58;20.30;68.20
47482;DHT22;33219;47.410;9.730;2023-03-23T10:53:11;20.60;66.30
47482;DHT22;33219;47.410;9.730;2023-03-23T10:55:49;20.60;65.50
47482;DHT22;33219;47.410;9.730;2023-03-23T10:58:27;20.70;65.40
47482;DHT22;33219;47.410;9.730;2023-03-23T11:37:37;21.80;60.80
47482;DHT22;33219;47.410;9.730;2023-03-23T11:40:23;22.10;59.70
47482;DHT22;33219;47.410;9.730;2023-03-23T11:45:35;22.10;58.70
47482;DHT22;33219;47.410;9.730;2023-03-23T11:51:26;22.10;57.90
47482;DHT22;33219;47.410;9.730;2023-03-23T11:57:06;21.60;57.80
47482;DHT22;33219;47.410;9.730;2023-03-23T11:59:47;21.60;58.90
47482;DHT22;33219;47.410;9.730;2023-03-23T12:02:39;21.80;58.00
47482;DHT22;33219;47.410;9.730;2023-03-23T12:05:40;22.00;58.20
47482;DHT22;33219;47.410;9.730;2023-03-23T12:14:29;22.40;58.50
47482;DHT22;33219;47.410;9.730;2023-03-23T12:17:29;22.00;58.80
47482;DHT22;33219;47.410;9.730;2023-03-23T12:20:13;22.30;59.80
47482;DHT22;33219;47.410;9.730;2023-03-23T12:32:19;21.80;64.00
47482;DHT22;33219;47.410;9.730;2023-03-23T12:40:51;21.00;65.20
47482;DHT22;33219;47.410;9.730;2023-03-23T12:43:51;20.80;67.20
47482;DHT22;33219;47.410;9.730;2023-03-23T12:47:29;20.90;66.00
47482;DHT22;33219;47.410;9.730;2023-03-23T12:49:22;20.90;66.50
47482;DHT22;33219;47.410;9.730;2023-03-23T12:51:55;20.90;66.00
47482;DHT22;33219;47.410;9.730;2023-03-23T12:54:37;20.70;65.90
47482;DHT22;33219;47.410;9.730;2023-03-23T12:57:17;20.50;66.70
47482;DHT22;33219;47.410;9.730;2023-03-23T12:59:59;20.50;66.70
47482;DHT22;33219;47.410;9.730;2023-03-23T13:02:30;20.40;66.10
47482;DHT22;33219;47.410;9.730;2023-03-23T13:08:20;20.20;66.80
47482;DHT22;33219;47.410;9.730;2023-03-23T13:10:55;20.20;66.60
47482;DHT22;33219;47.410;9.730;2023-03-23T13:13:49;20.10;66.90
47482;DHT22;33219;47.410;9.730;2023-03-23T13:16:27;20.10;66.70
47482;DHT22;33219;47.410;9.730;2023-03-23T13:22:18;19.70;66.60
47482;DHT22;33219;47.410;9.730;2023-03-23T13:24:54;19.80;67.40
47482;DHT22;33219;47.410;9.730;2023-03-23T13:27:32;19.80;66.90
47482;DHT22;33219;47.410;9.730;2023-03-23T13:30:04;19.90;67.40
47482;DHT22;33219;47.410;9.730;2023-03-23T13:32:39;20.10;67.20
47482;DHT22;33219;47.410;9.730;2023-03-23T13:35:14;20.00;66.60
47482;DHT22;33219;47.410;9.730;2023-03-23T13:37:54;20.00;67.20
47482;DHT22;33219;47.410;9.730;2023-03-23T13:40:28;19.90;67.80
47482;DHT22;33219;47.410;9.730;2023-03-23T13:42:59;19.90;67.60
47482;DHT22;33219;47.410;9.730;2023-03-23T13:45:42;20.00;67.10
47482;DHT22;33219;47.410;9.730;2023-03-23T13:50:56;20.30;66.40
47482;DHT22;33219;47.410;9.730;2023-03-23T13:53:42;20.30;67.30
47482;DHT22;33219;47.410;9.730;2023-03-23T13:56:34;20.30;66.00
47482;DHT22;33219;47.410;9.730;2023-03-23T13:59:04;20.40;66.80
47482;DHT22;33219;47.410;9.730;2023-03-23T14:01:33;20.40;66.60
47482;DHT22;33219;47.410;9.730;2023-03-23T14:04:18;20.20;66.90
47482;DHT22;33219;47.410;9.730;2023-03-23T14:06:49;20.10;67.50
47482;DHT22;33219;47.410;9.730;2023-03-23T14:10:04;19.80;67.10
47482;DHT22;33219;47.410;9.730;2023-03-23T14:12:18;19.70;68.50
47482;DHT22;33219;47.410;9.730;2023-03-23T14:14:50;19.50;68.10
47482;DHT22;33219;47.410;9.730;2023-03-23T14:17:21;19.60;67.50
47482;DHT22;33219;47.410;9.730;2023-03-23T14:19:51;19.60;68.30
47482;DHT22;33219;47.410;9.730;2023-03-23T14:22:23;20.00;68.00
47482;DHT22;33219;47.410;9.730;2023-03-23T14:24:58;19.90;66.60
47482;DHT22;33219;47.410;9.730;2023-03-23T14:27:23;19.80;65.90
47482;DHT22;33219;47.410;9.730;2023-03-23T14:30:02;19.70;67.00
47482;DHT22;33219;47.410;9.730;2023-03-23T14:32:34;19.60;66.40
47482;DHT22;33219;47.410;9.730;2023-03-23T14:37:41;19.50;67.10
47482;DHT22;33219;47.410;9.730;2023-03-23T14:40:15;19.50;68.00
47482;DHT22;33219;47.410;9.730;2023-03-23T14:42:46;19.60;67.20
47482;DHT22;33219;47.410;9.730;2023-03-23T14:45:17;19.60;67.40
47482;DHT22;33219;47.410;9.730;2023-03-23T14:47:52;19.60;67.60
47482;DHT22;33219;47.410;9.730;2023-03-23T14:50:38;19.50;66.70
47482;DHT22;33219;47.410;9.730;2023-03-23T14:53:35;19.30;66.90
47482;DHT22;33219;47.410;9.730;2023-03-23T14:56:18;19.20;67.90
47482;DHT22;33219;47.410;9.730;2023-03-23T14:58:46;19.20;68.60
47482;DHT22;33219;47.410;9.730;2023-03-23T15:01:19;19.30;68.40
47482;DHT22;33219;47.410;9.730;2023-03-23T15:03:55;19.30;70.00
47482;DHT22;33219;47.410;9.730;2023-03-23T15:06:20;19.10;70.10
47482;DHT22;33219;47.410;9.730;2023-03-23T15:08:50;19.10;69.80
47482;DHT22;33219;47.410;9.730;2023-03-23T15:11:28;18.90;69.80
47482;DHT22;33219;47.410;9.730;2023-03-23T15:13:58;18.90;70.10
47482;DHT22;33219;47.410;9.730;2023-03-23T15:16:30;18.80;71.30
47482;DHT22;33219;47.410;9.730;2023-03-23T15:19:04;18.70;71.30
47482;DHT22;33219;47.410;9.730;2023-03-23T15:21:33;18.50;71.60
47482;DHT22;33219;47.410;9.730;2023-03-23T15:24:03;18.50;72.10
47482;DHT22;33219;47.410;9.730;2023-03-23T15:32:45;18.70;71.70
47482;DHT22;33219;47.410;9.730;2023-03-23T15:35:17;18.70;72.20
47482;DHT22;33219;47.410;9.730;2023-03-23T15:37:49;18.60;71.80
47482;DHT22;33219;47.410;9.730;2023-03-23T15:40:20;18.70;70.40
47482;DHT22;33219;47.410;9.730;2023-03-23T15:42:49;18.50;70.70
47482;DHT22;33219;47.410;9.730;2023-03-23T15:45:26;18.50;70.90
47482;DHT22;33219;47.410;9.730;2023-03-23T15:47:57;18.40;72.10
47482;DHT22;33219;47.410;9.730;2023-03-23T15:52:56;18.30;71.80
47482;DHT22;33219;47.410;9.730;2023-03-23T15:55:29;18.20;73.20
47482;DHT22;33219;47.410;9.730;2023-03-23T15:57:57;17.90;75.60
47482;DHT22;33219;47.410;9.730;2023-03-23T16:00:27;17.70;76.60
47482;DHT22;33219;47.410;9.730;2023-03-23T16:03:01;17.50;77.80
47482;DHT22;33219;47.410;9.730;2023-03-23T16:05:29;17.30;78.00
47482;DHT22;33219;47.410;9.730;2023-03-23T16:07:56;17.10;79.30
47482;DHT22;33219;47.410;9.730;2023-03-23T16:10:25;16.90;79.50
47482;DHT22;33219;47.410;9.730;2023-03-23T16:12:53;16.80;79.70
47482;DHT22;33219;47.410;9.730;2023-03-23T16:15:21;16.80;80.00
47482;DHT22;33219;47.410;9.730;2023-03-23T16:24:33;16.50;81.70
47482;DHT22;33219;47.410;9.730;2023-03-23T16:27:01;16.30;81.60
47482;DHT22;33219;47.410;9.730;2023-03-23T16:29:28;16.30;82.20
47482;DHT22;33219;47.410;9.730;2023-03-23T16:31:56;16.20;82.50
47482;DHT22;33219;47.410;9.730;2023-03-23T16:34:24;16.30;82.30
47482;DHT22;33219;47.410;9.730;2023-03-23T16:36:53;16.20;82.10
47482;DHT22;33219;47.410;9.730;2023-03-23T16:39:21;16.20;82.50
47482;DHT22;33219;47.410;9.730;2023-03-23T16:41:49;16.10;82.50
47482;DHT22;33219;47.410;9.730;2023-03-23T16:44:17;16.10;82.30
47482;DHT22;33219;47.410;9.730;2023-03-23T16:46:45;16.10;82.30
47482;DHT22;33219;47.410;9.730;2023-03-23T16:49:15;16.10;82.30
47482;DHT22;33219;47.410;9.730;2023-03-23T16:51:43;16.00;81.90
47482;DHT22;33219;47.410;9.730;2023-03-23T16:54:10;16.00;81.90
47482;DHT22;33219;47.410;9.730;2023-03-23T16:56:38;16.00;82.30
47482;DHT22;33219;47.410;9.730;2023-03-23T16:59:06;16.00;82.40
47482;DHT22;33219;47.410;9.730;2023-03-23T17:01:33;16.00;83.00
47482;DHT22;33219;47.410;9.730;2023-03-23T17:04:01;16.00;82.50
47482;DHT22;33219;47.410;9.730;2023-03-23T17:06:33;16.00;81.80
47482;DHT22;33219;47.410;9.730;2023-03-23T17:09:00;15.90;82.40
47482;DHT22;33219;47.410;9.730;2023-03-23T17:11:28;15.90;82.30
47482;DHT22;33219;47.410;9.730;2023-03-23T17:13:56;15.90;82.70
47482;DHT22;33219;47.410;9.730;2023-03-23T17:16:24;15.90;83.00
47482;DHT22;33219;47.410;9.730;2023-03-23T17:18:52;15.90;82.80
47482;DHT22;33219;47.410;9.730;2023-03-23T17:21:20;15.80;83.70
47482;DHT22;33219;47.410;9.730;2023-03-23T17:23:49;15.70;84.40
47482;DHT22;33219;47.410;9.730;2023-03-23T17:26:17;15.70;83.90
47482;DHT22;33219;47.410;9.730;2023-03-23T17:28:45;15.70;84.40
47482;DHT22;33219;47.410;9.730;2023-03-23T17:31:13;15.70;84.90
47482;DHT22;33219;47.410;9.730;2023-03-23T17:33:41;15.70;85.60
47482;DHT22;33219;47.410;9.730;2023-03-23T17:36:09;15.60;86.10
47482;DHT22;33219;47.410;9.730;2023-03-23T17:38:37;15.50;86.30
47482;DHT22;33219;47.410;9.730;2023-03-23T17:41:05;15.50;86.90
47482;DHT22;33219;47.410;9.730;2023-03-23T17:43:34;15.50;86.80
47482;DHT22;33219;47.410;9.730;2023-03-23T17:46:02;15.50;86.80
47482;DHT22;33219;47.410;9.730;2023-03-23T17:48:30;15.50;86.70
47482;DHT22;33219;47.410;9.730;2023-03-23T17:51:00;15.40;87.00
47482;DHT22;33219;47.410;9.730;2023-03-23T17:53:29;15.40;87.40
47482;DHT22;33219;47.410;9.730;2023-03-23T17:56:01;15.50;87.50
47482;DHT22;33219;47.410;9.730;2023-03-23T17:58:28;15.40;87.60
47482;DHT22;33219;47.410;9.730;2023-03-23T18:00:57;15.40;87.80
47482;DHT22;33219;47.410;9.730;2023-03-23T18:03:25;15.30;87.90
47482;DHT22;33219;47.410;9.730;2023-03-23T18:05:57;15.30;88.30
47482;DHT22;33219;47.410;9.730;2023-03-23T18:08:26;15.30;88.50
47482;DHT22;33219;47.410;9.730;2023-03-23T18:10:56;15.30;88.90
47482;DHT22;33219;47.410;9.730;2023-03-23T18:13:25;15.20;89.80
47482;DHT22;33219;47.410;9.730;2023-03-23T18:15:57;15.20;90.50
47482;DHT22;33219;47.410;9.730;2023-03-23T18:18:26;15.20;91.00
47482;DHT22;33219;47.410;9.730;2023-03-23T18:21:03;15.20;91.10
47482;DHT22;33219;47.410;9.730;2023-03-23T18:23:31;15.10;91.30
47482;DHT22;33219;47.410;9.730;2023-03-23T18:26:03;15.00;91.60
47482;DHT22;33219;47.410;9.730;2023-03-23T18:28:31;15.00;91.90
47482;DHT22;33219;47.410;9.730;2023-03-23T18:31:04;14.90;92.00
47482;DHT22;33219;47.410;9.730;2023-03-23T18:33:33;14.90;92.30
47482;DHT22;33219;47.410;9.730;2023-03-23T18:36:04;14.80;92.60
47482;DHT22;33219;47.410;9.730;2023-03-23T18:38:33;14.80;93.10
47482;DHT22;33219;47.410;9.730;2023-03-23T18:41:04;14.70;93.40
47482;DHT22;33219;47.410;9.730;2023-03-23T18:43:31;14.70;93.60
47482;DHT22;33219;47.410;9.730;2023-03-23T18:46:00;14.60;93.70
47482;DHT22;33219;47.410;9.730;2023-03-23T18:48:29;14.60;94.10
47482;DHT22;33219;47.410;9.730;2023-03-23T18:50:58;14.60;94.00
47482;DHT22;33219;47.410;9.730;2023-03-23T18:53:27;14.60;93.90
47482;DHT22;33219;47.410;9.730;2023-03-23T18:56:03;14.50;93.90
47482;DHT22;33219;47.410;9.730;2023-03-23T18:58:33;14.50;94.00
47482;DHT22;33219;47.410;9.730;2023-03-23T19:01:04;14.50;94.00
47482;DHT22;33219;47.410;9.730;2023-03-23T19:03:33;14.50;94.20
47482;DHT22;33219;47.410;9.730;2023-03-23T19:06:02;14.50;94.70
47482;DHT22;33219;47.410;9.730;2023-03-23T19:08:30;14.50;94.70
47482;DHT22;33219;47.410;9.730;2023-03-23T19:11:01;14.50;94.80
47482;DHT22;33219;47.410;9.730;2023-03-23T19:13:30;14.40;94.60
47482;DHT22;33219;47.410;9.730;2023-03-23T19:16:00;14.40;94.60
47482;DHT22;33219;47.410;9.730;2023-03-23T19:18:28;14.40;94.30
47482;DHT22;33219;47.410;9.730;2023-03-23T19:20:56;14.40;94.20
47482;DHT22;33219;47.410;9.730;2023-03-23T19:23:24;14.40;95.00
47482;DHT22;33219;47.410;9.730;2023-03-23T19:25:53;14.40;95.40
47482;DHT22;33219;47.410;9.730;2023-03-23T19:28:21;14.30;95.40
47482;DHT22;33219;47.410;9.730;2023-03-23T19:30:54;14.30;96.20
47482;DHT22;33219;47.410;9.730;2023-03-23T19:33:25;14.30;95.70
47482;DHT22;33219;47.410;9.730;2023-03-23T19:35:53;14.20;96.20
47482;DHT22;33219;47.410;9.730;2023-03-23T19:38:22;14.20;96.50
47482;DHT22;33219;47.410;9.730;2023-03-23T19:40:52;14.10;96.80
47482;DHT22;33219;47.410;9.730;2023-03-23T19:43:23;14.10;97.00
47482;DHT22;33219;47.410;9.730;2023-03-23T19:45:52;14.00;96.70
47482;DHT22;33219;47.410;9.730;2023-03-23T19:48:21;14.00;96.90